Time;durP1;ratioP1;P1;durP2;ratioP2;P2;SDS_P1;SDS_P2;PMS_P1;PMS_P2;Temp;Humidity;BMP_temperature;BMP_pressure;BME280_temperature;BME280_humidity;BME280_pressure;Samples;Min_cycle;Max_cycle;Signal;HPM_P1;HPM_P2
2021/01/19 00:00:54;;;;;;;16.17;11.32;;;5.80;92.80;;;;;;2089145;28;20391;-83
2021/01/19 00:01:55;;;;;;;15.38;11.23;;;5.80;92.80;;;;;;2072147;28;20716;-82
2021/01/19 00:02:55;;;;;;;12.95;10.70;;;5.80;92.80;;;;;;2098560;28;20029;-83
2021/01/19 00:03:56;;;;;;;13.18;10.32;;;5.80;92.80;;;;;;2103741;28;20410;-83
2021/01/19 00:04:56;;;;;;;16.48;11.30;;;5.80;92.80;;;;;;2098000;28;20031;-83
2021/01/19 00:05:57;;;;;;;15.25;10.23;;;5.80;92.80;;;;;;2081618;28;20410;-83
2021/01/19 00:06:58;;;;;;;13.50;9.88;;;5.80;92.70;;;;;;2072208;28;20392;-83
2021/01/19 00:07:58;;;;;;;13.20;10.10;;;5.80;92.70;;;;;;2072903;28;20037;-83
2021/01/19 00:08:59;;;;;;;12.68;10.23;;;5.80;92.70;;;;;;2078423;28;20077;-82
2021/01/19 00:10:00;;;;;;;13.73;10.70;;;5.80;92.70;;;;;;2072659;28;20045;-82
2021/01/19 00:11:01;;;;;;;16.85;10.77;;;5.80;92.70;;;;;;2073567;28;20496;-82
2021/01/19 00:12:02;;;;;;;15.93;10.20;;;5.80;92.70;;;;;;2083460;28;20029;-82
2021/01/19 00:13:02;;;;;;;13.05;10.15;;;5.80;92.70;;;;;;2082343;28;20471;-82
2021/01/19 00:14:03;;;;;;;12.05;9.68;;;5.80;92.70;;;;;;2098255;28;20063;-83
2021/01/19 00:15:06;;;;;;;14.00;9.90;;;5.80;92.70;;;;;;2104306;28;20024;-83
2021/01/19 00:16:07;;;;;;;13.63;10.50;;;5.80;92.70;;;;;;2093213;28;20025;-82
2021/01/19 00:17:08;;;;;;;13.27;10.20;;;5.80;92.70;;;;;;2079228;28;20124;-83
2021/01/19 00:18:08;;;;;;;14.77;10.05;;;5.80;92.70;;;;;;2089564;28;20028;-83
2021/01/19 00:19:09;;;;;;;11.93;9.45;;;5.80;92.70;;;;;;2088295;28;20052;-83
2021/01/19 00:20:10;;;;;;;13.38;9.75;;;5.80;92.70;;;;;;2077773;28;20018;-83
2021/01/19 00:21:11;;;;;;;12.55;9.50;;;5.80;92.70;;;;;;2080837;28;20123;-82
2021/01/19 00:22:11;;;;;;;13.73;10.38;;;5.80;92.70;;;;;;2083683;28;20036;-83
2021/01/19 00:23:12;;;;;;;13.23;9.70;;;5.80;92.70;;;;;;2096209;28;20025;-83
2021/01/19 00:24:13;;;;;;;14.98;9.73;;;5.80;92.70;;;;;;2086023;28;20031;-83
2021/01/19 00:25:13;;;;;;;11.68;9.00;;;5.80;92.60;;;;;;2082526;28;20029;-83
2021/01/19 00:26:14;;;;;;;16.65;8.98;;;5.80;92.60;;;;;;2090791;28;20487;-83
2021/01/19 00:27:14;;;;;;;15.35;9.35;;;5.80;92.60;;;;;;2082766;28;20029;-83
2021/01/19 00:28:15;;;;;;;11.95;8.23;;;5.80;92.60;;;;;;2090215;28;20099;-83
2021/01/19 00:29:16;;;;;;;12.25;8.48;;;5.80;92.60;;;;;;2084619;28;20020;-83
2021/01/19 00:30:16;;;;;;;11.88;8.45;;;5.80;92.60;;;;;;2073512;28;20026;-83
2021/01/19 00:31:17;;;;;;;12.50;7.93;;;5.80;92.60;;;;;;2086171;28;20025;-83
2021/01/19 00:32:18;;;;;;;13.88;8.30;;;5.80;92.60;;;;;;2093634;28;20037;-83
2021/01/19 00:33:18;;;;;;;10.55;7.03;;;5.80;92.60;;;;;;2077836;28;20029;-83
2021/01/19 00:34:20;;;;;;;10.88;7.25;;;5.80;92.60;;;;;;2089632;28;20128;-83
2021/01/19 00:35:20;;;;;;;12.75;7.57;;;5.80;92.60;;;;;;2073788;28;20075;-83
2021/01/19 00:36:21;;;;;;;10.25;7.13;;;5.80;92.60;;;;;;2079614;28;20549;-83
2021/01/19 00:37:22;;;;;;;13.23;7.45;;;5.80;92.60;;;;;;2080770;28;20033;-83
2021/01/19 00:38:22;;;;;;;11.52;7.13;;;5.80;92.60;;;;;;2068397;28;20461;-83
2021/01/19 00:39:23;;;;;;;11.77;7.22;;;5.80;92.60;;;;;;2068373;28;20057;-83
2021/01/19 00:40:24;;;;;;;10.38;7.25;;;5.80;92.60;;;;;;2084340;28;20041;-84
2021/01/19 00:41:24;;;;;;;10.10;6.00;;;5.80;92.60;;;;;;2081243;28;20492;-83
2021/01/19 00:42:25;;;;;;;12.10;7.22;;;5.80;92.60;;;;;;2073003;28;20124;-83
2021/01/19 00:43:26;;;;;;;11.00;6.55;;;5.80;92.60;;;;;;2065494;28;20026;-83
2021/01/19 00:44:26;;;;;;;9.40;6.20;;;5.80;92.60;;;;;;2067670;28;20125;-83
2021/01/19 00:45:27;;;;;;;12.77;6.03;;;5.80;92.60;;;;;;2081661;28;20530;-83
2021/01/19 00:46:28;;;;;;;9.38;6.25;;;5.80;92.60;;;;;;2089095;28;20119;-83
2021/01/19 00:47:28;;;;;;;9.68;6.10;;;5.80;92.60;;;;;;2089996;28;20029;-83
2021/01/19 00:48:29;;;;;;;12.02;6.22;;;5.80;92.50;;;;;;2097102;28;20457;-83
2021/01/19 00:49:30;;;;;;;9.18;6.10;;;5.70;92.50;;;;;;2087819;28;20025;-84
2021/01/19 00:50:30;;;;;;;8.63;4.97;;;5.70;92.50;;;;;;2080886;28;20041;-83
2021/01/19 00:51:35;;;;;;;9.07;5.28;;;5.70;92.50;;;;;;2091411;28;20083;-83
2021/01/19 00:52:36;;;;;;;10.43;5.88;;;5.80;92.60;;;;;;2088914;28;20079;-83
2021/01/19 00:53:37;;;;;;;10.40;5.85;;;5.70;92.50;;;;;;2081610;28;20480;-83
2021/01/19 00:54:38;;;;;;;9.18;5.80;;;5.70;92.50;;;;;;2090660;28;20033;-84
2021/01/19 00:55:38;;;;;;;10.00;5.70;;;5.70;92.50;;;;;;2095396;28;20048;-83
2021/01/19 00:56:41;;;;;;;8.90;5.47;;;5.70;92.50;;;;;;2077916;28;20042;-83
2021/01/19 00:57:45;;;;;;;12.50;5.97;;;5.70;92.50;;;;;;2078376;28;20026;-83
2021/01/19 00:58:45;;;;;;;11.25;5.28;;;5.70;92.80;;;;;;2088978;28;20028;-83
2021/01/19 00:59:46;;;;;;;11.00;5.32;;;5.70;92.50;;;;;;2089120;28;20439;-83
2021/01/19 01:00:47;;;;;;;8.85;4.63;;;5.70;92.50;;;;;;2078262;28;20064;-83
2021/01/19 01:01:49;;;;;;;9.15;5.78;;;5.70;92.50;;;;;;2084442;28;20033;-83
2021/01/19 01:02:49;;;;;;;9.63;5.28;;;5.70;92.50;;;;;;2089420;28;20055;-83
2021/01/19 01:03:50;;;;;;;8.23;4.95;;;5.70;92.50;;;;;;2095652;28;20029;-83
2021/01/19 01:04:50;;;;;;;8.35;4.70;;;5.70;92.50;;;;;;2088953;28;20148;-83
2021/01/19 01:05:51;;;;;;;9.15;4.70;;;5.70;92.50;;;;;;2080274;28;20065;-83
2021/01/19 01:06:53;;;;;;;6.03;4.10;;;5.70;92.50;;;;;;2088821;28;20028;-83
2021/01/19 01:07:54;;;;;;;10.88;4.70;;;5.70;92.50;;;;;;2089241;28;20075;-83
2021/01/19 01:08:54;;;;;;;9.95;4.43;;;5.70;92.50;;;;;;2077547;28;20150;-83
2021/01/19 01:09:55;;;;;;;8.18;4.38;;;5.70;92.50;;;;;;2077918;28;20026;-83
2021/01/19 01:10:55;;;;;;;9.27;4.40;;;5.70;92.40;;;;;;2081786;28;20078;-83
2021/01/19 01:11:56;;;;;;;7.57;4.50;;;5.70;92.40;;;;;;2085220;28;20525;-83
2021/01/19 01:12:57;;;;;;;7.50;4.30;;;5.70;92.40;;;;;;2095976;28;20040;-83
2021/01/19 01:13:57;;;;;;;8.50;4.32;;;5.70;92.40;;;;;;2088633;28;20122;-83
2021/01/19 01:14:59;;;;;;;9.82;3.90;;;5.70;92.40;;;;;;2073529;28;20041;-83
2021/01/19 01:15:59;;;;;;;10.15;4.22;;;5.70;92.40;;;;;;2081499;28;20021;-83
2021/01/19 01:17:01;;;;;;;8.00;4.13;;;5.70;92.40;;;;;;2097339;28;20174;-83
2021/01/19 01:18:02;;;;;;;7.75;4.03;;;5.70;92.40;;;;;;2084289;28;20115;-83
2021/01/19 01:19:07;;;;;;;6.93;3.67;;;5.70;92.40;;;;;;2089551;28;20033;-82
2021/01/19 01:20:09;;;;;;;7.15;3.38;;;5.70;92.30;;;;;;2094878;28;20071;-83
2021/01/19 01:21:12;;;;;;;7.30;3.45;;;5.70;92.30;;;;;;2081441;28;20040;-82
2021/01/19 01:22:13;;;;;;;8.73;3.83;;;5.70;92.30;;;;;;2082680;28;20442;-83
2021/01/19 01:23:14;;;;;;;7.15;3.28;;;5.70;92.30;;;;;;2086089;28;20124;-83
2021/01/19 01:24:14;;;;;;;8.63;3.53;;;5.70;92.30;;;;;;2072925;28;20030;-83
2021/01/19 01:25:16;;;;;;;7.65;3.35;;;5.70;92.30;;;;;;2081514;28;20416;-83
2021/01/19 01:26:19;;;;;;;7.90;3.45;;;5.70;92.30;;;;;;2087774;28;20048;-83
2021/01/19 01:27:19;;;;;;;8.57;3.67;;;5.60;92.30;;;;;;2084929;28;20514;-83
2021/01/19 01:28:20;;;;;;;8.27;3.08;;;5.70;92.30;;;;;;2081582;28;20033;-82
2021/01/19 01:29:20;;;;;;;6.47;2.67;;;5.70;92.30;;;;;;2078520;28;20025;-82
2021/01/19 01:30:21;;;;;;;8.40;3.50;;;5.70;92.30;;;;;;2073644;28;20036;-83
2021/01/19 01:31:22;;;;;;;8.57;3.92;;;5.60;92.20;;;;;;2086611;28;20033;-83
2021/01/19 01:32:22;;;;;;;8.75;2.78;;;5.60;92.20;;;;;;2073230;28;20479;-83
2021/01/19 01:33:23;;;;;;;8.10;3.22;;;5.70;92.20;;;;;;2081604;28;20022;-83
2021/01/19 01:34:24;;;;;;;8.23;3.22;;;5.60;92.20;;;;;;2080540;28;20032;-83
2021/01/19 01:35:24;;;;;;;9.50;3.08;;;5.70;92.20;;;;;;2065261;28;20161;-83
2021/01/19 01:36:25;;;;;;;8.13;2.78;;;5.60;92.20;;;;;;2088284;28;20470;-83
2021/01/19 01:37:26;;;;;;;8.98;3.05;;;5.60;92.20;;;;;;2097025;28;20032;-83
2021/01/19 01:38:26;;;;;;;7.13;2.90;;;5.60;92.10;;;;;;2109857;28;20038;-82
2021/01/19 01:39:27;;;;;;;6.88;2.65;;;5.60;92.10;;;;;;2091509;28;20014;-82
2021/01/19 01:40:28;;;;;;;6.82;2.60;;;5.60;92.10;;;;;;2078654;28;20089;-82
2021/01/19 01:41:29;;;;;;;6.97;2.80;;;5.60;92.10;;;;;;2092784;28;20006;-83
2021/01/19 01:42:30;;;;;;;6.53;2.88;;;5.60;92.10;;;;;;2098124;28;20032;-83
2021/01/19 01:43:30;;;;;;;8.15;2.70;;;5.60;92.10;;;;;;2101664;28;20490;-83
2021/01/19 01:44:31;;;;;;;6.80;2.67;;;5.60;92.10;;;;;;2097531;28;20052;-83
2021/01/19 01:45:32;;;;;;;8.48;2.60;;;5.60;92.10;;;;;;2090375;28;20028;-83
2021/01/19 01:46:35;;;;;;;8.02;2.75;;;5.60;92.10;;;;;;2082438;28;20515;-82
2021/01/19 01:47:39;;;;;;;5.13;2.25;;;5.60;92.10;;;;;;2092260;28;20045;-81
2021/01/19 01:48:41;;;;;;;8.63;2.30;;;5.60;92.10;;;;;;2099611;28;20008;-83
2021/01/19 01:49:42;;;;;;;6.78;2.45;;;5.60;92.10;;;;;;2091799;28;20017;-83
2021/01/19 01:50:43;;;;;;;7.03;2.55;;;5.60;92.10;;;;;;2096312;28;20021;-82
2021/01/19 01:51:43;;;;;;;8.30;2.42;;;5.60;92.10;;;;;;2094878;28;20072;-83
2021/01/19 01:52:45;;;;;;;7.47;2.40;;;5.60;92.10;;;;;;2095903;28;20053;-83
2021/01/19 01:53:46;;;;;;;7.07;2.20;;;5.60;92.00;;;;;;2081531;28;22568;-82
2021/01/19 01:54:49;;;;;;;7.45;2.13;;;5.60;92.30;;;;;;2074590;28;20026;-83
2021/01/19 01:55:50;;;;;;;6.25;2.17;;;5.60;92.00;;;;;;2073351;28;20503;-83
2021/01/19 01:56:50;;;;;;;7.05;2.60;;;5.60;92.10;;;;;;2073844;28;20042;-83
2021/01/19 01:57:51;;;;;;;9.25;2.50;;;5.60;92.00;;;;;;2086689;28;20250;-82
2021/01/19 01:58:53;;;;;;;5.80;2.42;;;5.60;92.00;;;;;;2089248;28;20056;-82
2021/01/19 02:00:00;;;;;;;8.98;2.70;;;5.60;92.30;;;;;;2089702;28;20029;-82
2021/01/19 02:01:02;;;;;;;7.82;1.98;;;5.50;92.00;;;;;;2083084;28;20047;-82
2021/01/19 02:02:12;;;;;;;7.88;2.25;;;5.50;92.00;;;;;;2096118;28;20040;-82
2021/01/19 02:03:13;;;;;;;9.98;2.00;;;5.60;92.00;;;;;;2089525;28;20131;-82
2021/01/19 02:04:13;;;;;;;6.05;2.20;;;5.50;91.90;;;;;;2094960;28;20020;-82
2021/01/19 02:05:14;;;;;;;7.25;2.33;;;5.50;91.90;;;;;;2089231;28;20148;-83
2021/01/19 02:06:16;;;;;;;5.28;1.85;;;5.50;91.90;;;;;;2089061;28;20426;-82
2021/01/19 02:07:23;;;;;;;7.40;1.80;;;5.50;91.90;;;;;;2089299;28;20040;-82
2021/01/19 02:08:52;;;;;;;6.70;2.00;;;5.50;91.90;;;;;;2090304;28;20025;-81
2021/01/19 02:10:16;;;;;;;6.97;2.00;;;5.50;91.90;;;;;;2098086;28;20048;-82
2021/01/19 02:11:40;;;;;;;4.63;1.83;;;5.50;91.90;;;;;;2096401;28;20081;-82
2021/01/19 02:13:09;;;;;;;4.18;1.50;;;5.40;91.90;;;;;;2102497;28;20036;-82
2021/01/19 02:14:40;;;;;;;5.97;1.63;;;5.40;91.90;;;;;;2091636;28;20049;-83
2021/01/19 02:15:45;;;;;;;6.88;1.75;;;5.50;91.90;;;;;;2085405;28;20017;-82
2021/01/19 02:17:07;;;;;;;5.18;1.70;;;5.50;91.90;;;;;;2080094;28;20025;-82
2021/01/19 02:18:20;;;;;;;7.78;2.08;;;5.40;91.80;;;;;;2080083;28;20465;-82
2021/01/19 02:19:40;;;;;;;5.13;1.58;;;5.50;91.80;;;;;;2088302;28;20116;-81
2021/01/19 02:20:56;;;;;;;5.13;1.63;;;5.50;91.80;;;;;;2089924;28;20029;-82
2021/01/19 02:22:30;;;;;;;6.13;1.58;;;5.40;91.80;;;;;;2085263;28;20033;-82
2021/01/19 02:23:55;;;;;;;5.25;1.80;;;5.50;91.80;;;;;;2093678;28;20060;-82
2021/01/19 02:25:13;;;;;;;4.38;1.52;;;5.50;91.80;;;;;;2087830;28;20036;-82
2021/01/19 02:26:32;;;;;;;5.38;1.60;;;5.40;91.70;;;;;;2089776;28;20115;-82
2021/01/19 02:27:52;;;;;;;6.38;1.98;;;5.40;91.70;;;;;;2084493;28;20025;-82
2021/01/19 02:28:56;;;;;;;7.03;1.50;;;5.50;91.70;;;;;;2075730;28;20119;-82
2021/01/19 02:30:07;;;;;;;5.45;1.70;;;5.50;91.70;;;;;;2083849;28;20030;-82
2021/01/19 02:31:45;;;;;;;7.15;1.65;;;5.50;91.70;;;;;;2081087;28;20045;-82
2021/01/19 02:33:17;;;;;;;5.47;1.83;;;5.40;91.60;;;;;;2081433;28;20095;-82
2021/01/19 02:34:32;;;;;;;5.70;1.50;;;5.50;91.60;;;;;;2084472;28;20037;-82
2021/01/19 02:35:53;;;;;;;6.45;1.58;;;5.50;91.80;;;;;;2096747;28;20445;-82
2021/01/19 02:37:07;;;;;;;3.72;1.38;;;5.50;91.50;;;;;;2088955;28;20086;-82
2021/01/19 02:38:36;;;;;;;7.18;1.80;;;5.50;91.50;;;;;;2084662;28;20024;-82
2021/01/19 02:40:04;;;;;;;8.20;1.90;;;5.50;91.50;;;;;;2084803;28;20017;-82
2021/01/19 02:41:06;;;;;;;8.23;2.10;;;5.50;91.50;;;;;;2083732;28;20504;-82
2021/01/19 02:42:10;;;;;;;5.35;1.50;;;5.50;91.40;;;;;;2094329;28;20517;-82
2021/01/19 02:43:15;;;;;;;4.55;1.50;;;5.50;91.40;;;;;;2096039;28;20033;-82
2021/01/19 02:44:21;;;;;;;6.25;1.85;;;5.50;91.40;;;;;;2087396;28;20128;-82
2021/01/19 02:45:24;;;;;;;5.38;1.60;;;5.50;91.40;;;;;;2088555;28;20017;-82
2021/01/19 02:46:25;;;;;;;4.63;1.50;;;5.50;91.40;;;;;;2082621;28;20025;-82
2021/01/19 02:47:26;;;;;;;4.45;1.40;;;5.50;91.40;;;;;;2081672;28;20033;-82
2021/01/19 02:48:26;;;;;;;5.55;1.40;;;5.50;91.40;;;;;;2096144;28;20028;-82
2021/01/19 02:49:27;;;;;;;7.70;1.60;;;5.50;91.30;;;;;;2090222;28;20025;-82
2021/01/19 02:50:28;;;;;;;3.13;1.30;;;5.50;91.30;;;;;;2080622;28;20423;-82
2021/01/19 02:51:28;;;;;;;4.82;1.60;;;5.50;91.30;;;;;;2079847;28;20025;-82
2021/01/19 02:52:29;;;;;;;7.10;1.50;;;5.50;91.30;;;;;;2072339;28;20380;-82
2021/01/19 02:53:30;;;;;;;5.20;1.30;;;5.50;91.30;;;;;;2080541;28;20510;-83
2021/01/19 02:54:33;;;;;;;9.13;2.63;;;5.50;91.30;;;;;;2076358;28;20029;-83
2021/01/19 02:55:34;;;;;;;3.80;1.50;;;5.50;91.20;;;;;;2073000;28;20033;-83
2021/01/19 02:56:47;;;;;;;3.95;1.38;;;5.50;91.30;;;;;;2084774;28;20488;-82
2021/01/19 02:58:07;;;;;;;6.05;1.42;;;5.50;91.30;;;;;;2081057;28;20666;-82
2021/01/19 02:59:17;;;;;;;6.53;1.80;;;5.50;91.30;;;;;;2083021;28;20084;-82
2021/01/19 03:00:24;;;;;;;6.30;1.67;;;5.50;91.20;;;;;;2097046;28;20025;-82
2021/01/19 03:01:28;;;;;;;7.47;1.73;;;5.50;91.20;;;;;;2094021;28;20033;-82
2021/01/19 03:02:35;;;;;;;5.88;1.85;;;5.50;91.20;;;;;;2087601;28;20025;-82
2021/01/19 03:03:39;;;;;;;6.68;1.65;;;5.50;91.20;;;;;;2088705;28;20021;-82
2021/01/19 03:04:43;;;;;;;4.53;1.38;;;5.50;91.20;;;;;;2082156;28;20387;-82
2021/01/19 03:05:46;;;;;;;5.90;1.52;;;5.50;91.20;;;;;;2085285;28;20147;-82
2021/01/19 03:06:49;;;;;;;7.72;1.80;;;5.40;91.20;;;;;;2080640;28;20471;-82
2021/01/19 03:07:51;;;;;;;7.88;2.13;;;5.40;91.20;;;;;;2072426;28;20041;-82
2021/01/19 03:08:55;;;;;;;4.25;1.50;;;5.40;91.20;;;;;;2081895;28;20068;-82
2021/01/19 03:10:00;;;;;;;6.13;1.50;;;5.40;91.20;;;;;;2084584;28;20355;-82
2021/01/19 03:11:03;;;;;;;7.47;1.70;;;5.40;91.20;;;;;;2089821;28;20489;-82
2021/01/19 03:12:06;;;;;;;7.13;1.77;;;5.40;91.30;;;;;;2085715;28;20025;-83
2021/01/19 03:13:12;;;;;;;6.78;1.77;;;5.40;91.30;;;;;;2080785;28;20022;-82
2021/01/19 03:14:13;;;;;;;4.05;1.80;;;5.40;91.30;;;;;;2083737;28;20025;-82
2021/01/19 03:15:17;;;;;;;7.55;1.63;;;5.40;91.20;;;;;;2090268;28;20551;-80
2021/01/19 03:16:20;;;;;;;7.28;1.90;;;5.40;91.20;;;;;;2094268;28;20520;-80
2021/01/19 03:17:21;;;;;;;5.40;1.98;;;5.40;91.20;;;;;;2080289;28;20485;-83
2021/01/19 03:18:21;;;;;;;5.57;1.88;;;5.30;91.20;;;;;;2082024;28;20048;-83
2021/01/19 03:19:25;;;;;;;5.95;1.83;;;5.40;91.20;;;;;;2088011;28;20086;-83
2021/01/19 03:20:27;;;;;;;6.82;1.90;;;5.40;91.20;;;;;;2085533;28;20029;-83
2021/01/19 03:21:27;;;;;;;7.82;2.30;;;5.40;91.20;;;;;;2093966;28;20025;-82
2021/01/19 03:22:28;;;;;;;4.25;1.77;;;5.40;91.20;;;;;;2098510;28;20503;-83
2021/01/19 03:23:29;;;;;;;7.57;2.10;;;5.40;91.20;;;;;;2087705;28;20025;-83
2021/01/19 03:24:29;;;;;;;6.72;2.13;;;5.30;91.20;;;;;;2087960;28;20053;-83
2021/01/19 03:25:30;;;;;;;8.32;2.28;;;5.40;91.20;;;;;;2088572;28;20120;-83
2021/01/19 03:26:30;;;;;;;7.72;2.28;;;5.40;91.20;;;;;;2087542;28;20449;-83
2021/01/19 03:27:31;;;;;;;6.80;2.10;;;5.30;91.20;;;;;;2088183;28;20033;-83
2021/01/19 03:28:32;;;;;;;5.38;1.80;;;5.30;91.20;;;;;;2096926;28;20059;-83
2021/01/19 03:29:34;;;;;;;5.10;2.05;;;5.30;91.30;;;;;;2087269;28;20091;-82
2021/01/19 03:30:34;;;;;;;8.07;2.40;;;5.30;91.30;;;;;;2079703;28;20466;-82
2021/01/19 03:31:35;;;;;;;5.30;1.98;;;5.30;91.30;;;;;;2080026;28;20036;-82
2021/01/19 03:32:35;;;;;;;5.80;2.10;;;5.20;91.30;;;;;;2087459;28;20036;-82
2021/01/19 03:33:36;;;;;;;6.55;2.15;;;5.30;91.30;;;;;;2091168;28;20028;-82
2021/01/19 03:34:36;;;;;;;6.28;2.25;;;5.30;91.30;;;;;;2084698;28;20037;-82
2021/01/19 03:35:39;;;;;;;6.80;2.20;;;5.20;91.30;;;;;;2079885;28;20113;-82
2021/01/19 03:36:39;;;;;;;6.80;2.10;;;5.20;91.40;;;;;;2088276;28;20527;-82
2021/01/19 03:37:40;;;;;;;5.22;2.00;;;5.20;91.40;;;;;;2079299;28;20083;-82
2021/01/19 03:38:41;;;;;;;8.07;2.28;;;5.20;91.40;;;;;;2070452;28;20038;-82
2021/01/19 03:39:41;;;;;;;6.60;2.17;;;5.20;91.40;;;;;;2079174;28;20073;-82
2021/01/19 03:40:42;;;;;;;6.60;2.30;;;5.10;91.50;;;;;;2058169;28;620937;-83
2021/01/19 03:41:43;;;;;;;5.38;2.25;;;5.10;91.50;;;;;;2081622;28;20029;-82
2021/01/19 03:42:44;;;;;;;5.57;2.05;;;5.20;91.50;;;;;;2079587;28;20071;-82
2021/01/19 03:43:44;;;;;;;7.00;2.40;;;5.10;91.50;;;;;;2088866;28;20083;-82
2021/01/19 03:44:45;;;;;;;6.93;2.78;;;5.10;91.50;;;;;;2082555;28;20034;-83
2021/01/19 03:45:46;;;;;;;6.65;2.30;;;5.10;91.50;;;;;;2076726;28;20026;-82
2021/01/19 03:46:46;;;;;;;6.35;2.58;;;5.10;91.50;;;;;;2083226;28;20052;-83
2021/01/19 03:47:47;;;;;;;6.10;2.33;;;5.10;91.50;;;;;;2089669;28;20025;-83
2021/01/19 03:48:48;;;;;;;9.02;3.15;;;5.10;91.60;;;;;;2086254;28;20686;-82
2021/01/19 03:49:48;;;;;;;7.57;2.92;;;5.10;91.60;;;;;;2086133;28;20051;-82
2021/01/19 03:50:49;;;;;;;6.72;2.90;;;5.10;91.60;;;;;;2088497;28;20032;-83
2021/01/19 03:51:49;;;;;;;10.13;3.17;;;5.00;91.60;;;;;;2087793;28;20029;-83
2021/01/19 03:52:50;;;;;;;9.48;3.10;;;5.10;91.60;;;;;;2088384;28;20418;-82
2021/01/19 03:53:52;;;;;;;6.57;2.60;;;5.00;91.60;;;;;;2088456;28;20067;-82
2021/01/19 03:54:52;;;;;;;6.75;2.65;;;5.00;91.60;;;;;;2078860;28;20063;-82
2021/01/19 03:55:53;;;;;;;10.20;3.60;;;5.00;91.60;;;;;;2079385;28;20032;-81
2021/01/19 03:56:54;;;;;;;8.98;2.92;;;5.00;91.70;;;;;;2079898;28;20036;-80
2021/01/19 03:57:54;;;;;;;7.18;2.90;;;5.00;91.70;;;;;;2082257;28;20037;-80
2021/01/19 03:58:55;;;;;;;8.18;2.72;;;5.00;91.70;;;;;;2089451;28;20039;-80
2021/01/19 03:59:55;;;;;;;7.72;2.92;;;5.00;91.70;;;;;;2085258;28;20030;-80
2021/01/19 04:00:56;;;;;;;6.60;2.85;;;5.00;91.70;;;;;;2077553;28;20167;-81
2021/01/19 04:01:56;;;;;;;8.77;3.20;;;5.00;91.80;;;;;;2085851;28;20033;-80
2021/01/19 04:02:57;;;;;;;8.27;3.10;;;5.00;91.80;;;;;;2087705;28;20029;-80
2021/01/19 04:03:58;;;;;;;7.25;3.10;;;5.00;91.80;;;;;;2084240;28;20033;-80
2021/01/19 04:04:58;;;;;;;6.47;3.17;;;4.90;91.80;;;;;;2080650;28;20037;-80
2021/01/19 04:05:59;;;;;;;9.73;3.13;;;5.00;91.90;;;;;;2071992;28;20388;-82
2021/01/19 04:06:59;;;;;;;8.20;3.00;;;4.90;91.90;;;;;;2093150;28;20033;-82
2021/01/19 04:08:00;;;;;;;7.63;3.20;;;4.90;91.90;;;;;;2101114;28;20067;-82
2021/01/19 04:09:01;;;;;;;5.97;2.85;;;4.90;91.90;;;;;;2081378;28;20026;-82
2021/01/19 04:10:02;;;;;;;5.85;2.83;;;4.90;91.90;;;;;;2079738;28;20040;-83
2021/01/19 04:11:03;;;;;;;6.38;2.55;;;4.90;91.90;;;;;;2068759;28;20083;-82
2021/01/19 04:12:04;;;;;;;10.07;3.33;;;4.90;92.00;;;;;;2072277;28;20064;-82
2021/01/19 04:13:04;;;;;;;6.93;2.70;;;4.90;92.00;;;;;;2079961;28;20025;-82
2021/01/19 04:14:05;;;;;;;6.43;2.78;;;4.90;92.00;;;;;;2080685;28;20068;-82
2021/01/19 04:15:06;;;;;;;7.93;3.00;;;4.90;92.00;;;;;;2079238;28;20106;-81
2021/01/19 04:16:07;;;;;;;5.97;2.70;;;4.90;92.10;;;;;;2089337;28;20495;-80
2021/01/19 04:17:08;;;;;;;7.35;2.90;;;4.90;92.10;;;;;;2082518;28;20057;-80
2021/01/19 04:18:09;;;;;;;7.85;3.20;;;4.80;92.10;;;;;;2081819;28;20551;-80
2021/01/19 04:19:09;;;;;;;8.00;3.20;;;4.90;92.10;;;;;;2090424;28;20045;-81
2021/01/19 04:20:10;;;;;;;8.07;3.30;;;4.90;92.10;;;;;;2082155;28;20029;-80
2021/01/19 04:21:11;;;;;;;9.93;3.45;;;4.80;92.20;;;;;;2074037;28;20040;-79
2021/01/19 04:22:12;;;;;;;7.40;3.38;;;4.80;92.20;;;;;;2073784;28;20030;-80
2021/01/19 04:23:14;;;;;;;7.32;2.83;;;4.80;92.20;;;;;;2077246;28;20035;-80
2021/01/19 04:24:14;;;;;;;6.70;3.45;;;4.80;92.20;;;;;;2080612;28;20029;-80
2021/01/19 04:25:15;;;;;;;6.88;3.55;;;4.80;92.50;;;;;;2090898;28;20462;-80
2021/01/19 04:26:15;;;;;;;7.10;3.35;;;4.80;92.30;;;;;;2089322;28;20021;-80
2021/01/19 04:27:16;;;;;;;6.50;3.15;;;4.80;92.30;;;;;;2081171;28;20125;-81
2021/01/19 04:28:17;;;;;;;9.00;3.55;;;4.80;92.60;;;;;;2089697;28;20093;-82
2021/01/19 04:29:18;;;;;;;5.28;3.13;;;4.80;92.30;;;;;;2096751;28;20039;-80
2021/01/19 04:30:19;;;;;;;8.13;3.30;;;4.80;92.30;;;;;;2083332;28;20025;-80
2021/01/19 04:31:19;;;;;;;6.55;3.40;;;4.80;92.30;;;;;;2084524;28;20025;-80
2021/01/19 04:32:20;;;;;;;7.57;3.78;;;4.80;92.40;;;;;;2087748;28;20060;-80
2021/01/19 04:33:21;;;;;;;8.45;3.53;;;4.80;92.40;;;;;;2084671;28;20120;-79
2021/01/19 04:34:21;;;;;;;9.23;4.05;;;4.80;92.40;;;;;;2079663;28;20030;-79
2021/01/19 04:35:22;;;;;;;7.65;4.10;;;4.80;92.40;;;;;;2073882;28;20029;-79
2021/01/19 04:36:23;;;;;;;10.02;3.83;;;4.80;92.40;;;;;;2081425;28;20030;-80
2021/01/19 04:37:23;;;;;;;10.18;4.28;;;4.80;92.40;;;;;;2086355;28;20515;-81
2021/01/19 04:38:24;;;;;;;10.13;4.40;;;4.80;92.50;;;;;;2081678;28;20026;-80
2021/01/19 04:39:25;;;;;;;9.07;4.28;;;4.80;92.50;;;;;;2085695;28;20066;-80
2021/01/19 04:40:26;;;;;;;7.70;3.50;;;4.80;92.50;;;;;;2083967;28;20022;-80
2021/01/19 04:41:27;;;;;;;8.32;4.35;;;4.80;92.50;;;;;;2095578;28;20049;-81
2021/01/19 04:42:32;;;;;;;7.25;3.38;;;4.80;92.50;;;;;;2106563;28;20039;-81
2021/01/19 04:43:32;;;;;;;7.47;3.40;;;4.80;92.50;;;;;;2090399;28;20124;-80
2021/01/19 04:44:35;;;;;;;5.93;3.45;;;4.80;92.80;;;;;;2088148;28;20442;-80
2021/01/19 04:45:36;;;;;;;9.02;3.72;;;4.80;92.60;;;;;;2089550;28;20079;-80
2021/01/19 04:46:38;;;;;;;9.75;3.40;;;4.80;92.60;;;;;;2094926;28;20045;-80
2021/01/19 04:47:39;;;;;;;5.97;3.20;;;4.80;92.60;;;;;;2073571;28;20030;-80
2021/01/19 04:48:42;;;;;;;6.28;3.50;;;4.80;92.60;;;;;;2065563;28;20054;-81
2021/01/19 04:49:51;;;;;;;7.07;3.50;;;4.80;92.60;;;;;;2082533;28;20471;-81
2021/01/19 04:50:53;;;;;;;6.43;3.47;;;4.80;92.60;;;;;;2082618;28;20040;-80
2021/01/19 04:51:57;;;;;;;6.93;3.65;;;4.80;92.60;;;;;;2086470;28;20035;-80
2021/01/19 04:52:59;;;;;;;6.60;3.60;;;4.80;92.60;;;;;;2081786;28;20044;-80
2021/01/19 04:54:04;;;;;;;7.63;3.45;;;4.80;92.60;;;;;;2082191;28;20018;-80
2021/01/19 04:55:10;;;;;;;6.65;3.47;;;4.80;92.60;;;;;;2090016;28;20122;-80
2021/01/19 04:56:18;;;;;;;6.93;3.55;;;4.80;92.60;;;;;;2096525;28;20425;-80
2021/01/19 04:57:22;;;;;;;8.57;4.10;;;4.80;92.60;;;;;;2086584;28;20360;-80
2021/01/19 04:58:23;;;;;;;5.97;3.45;;;4.80;92.70;;;;;;2088895;28;20053;-80
2021/01/19 04:59:25;;;;;;;7.35;3.90;;;4.80;92.70;;;;;;2088972;28;20036;-80
2021/01/19 05:00:36;;;;;;;7.57;3.88;;;4.80;92.70;;;;;;2086160;28;20386;-80
2021/01/19 05:01:44;;;;;;;7.47;3.90;;;4.80;92.70;;;;;;2085778;28;20056;-80
2021/01/19 05:03:12;;;;;;;7.72;3.80;;;4.90;92.70;;;;;;2088739;28;20037;-80
2021/01/19 05:04:47;;;;;;;8.55;4.00;;;4.80;92.70;;;;;;2086542;28;20053;-80
2021/01/19 05:05:56;;;;;;;8.98;3.75;;;4.90;92.70;;;;;;2085573;28;20472;-80
2021/01/19 05:07:30;;;;;;;9.40;4.00;;;4.80;92.70;;;;;;2083842;28;20394;-80
2021/01/19 05:08:42;;;;;;;7.80;3.60;;;4.80;92.70;;;;;;2089490;28;20021;-80
2021/01/19 05:10:15;;;;;;;6.90;3.53;;;4.80;92.70;;;;;;2076924;28;20026;-80
2021/01/19 05:11:27;;;;;;;7.18;3.67;;;4.80;92.70;;;;;;2089086;28;20037;-80
2021/01/19 05:12:53;;;;;;;6.47;3.25;;;4.80;92.70;;;;;;2083134;28;20128;-81
2021/01/19 05:14:02;;;;;;;6.55;3.20;;;4.80;92.70;;;;;;2081704;28;20033;-81
2021/01/19 05:15:03;;;;;;;8.20;3.42;;;4.80;92.70;;;;;;2090315;28;20391;-80
2021/01/19 05:16:04;;;;;;;6.63;3.47;;;4.80;92.70;;;;;;2081306;28;20056;-81
2021/01/19 05:17:05;;;;;;;5.47;3.60;;;4.80;92.70;;;;;;2077898;28;20021;-81
2021/01/19 05:18:17;;;;;;;7.60;4.10;;;4.80;92.80;;;;;;2089988;28;20029;-80
2021/01/19 05:19:21;;;;;;;5.88;3.10;;;4.80;92.80;;;;;;2090570;28;20020;-80
2021/01/19 05:20:24;;;;;;;7.22;3.55;;;4.80;92.80;;;;;;2081335;28;20013;-80
2021/01/19 05:21:24;;;;;;;7.45;3.17;;;4.80;92.80;;;;;;2098089;28;20467;-80
2021/01/19 05:22:25;;;;;;;8.48;4.22;;;4.80;92.90;;;;;;2097551;28;20074;-80
2021/01/19 05:23:26;;;;;;;6.18;3.78;;;4.80;92.90;;;;;;2081548;28;20108;-80
2021/01/19 05:24:27;;;;;;;7.30;3.60;;;4.80;92.90;;;;;;2087375;28;20028;-80
2021/01/19 05:25:27;;;;;;;6.82;3.50;;;4.80;92.90;;;;;;2094385;28;20130;-80
2021/01/19 05:26:28;;;;;;;5.78;3.20;;;4.80;93.00;;;;;;2083029;28;20143;-80
2021/01/19 05:27:29;;;;;;;6.07;3.33;;;4.80;93.00;;;;;;2072627;28;20030;-80
2021/01/19 05:28:49;;;;;;;6.03;3.60;;;4.80;93.00;;;;;;2080846;28;20049;-80
2021/01/19 05:30:20;;;;;;;5.82;3.20;;;4.80;93.00;;;;;;2078599;28;20022;-80
2021/01/19 05:31:29;;;;;;;5.15;3.05;;;4.80;93.00;;;;;;2075123;28;20234;-79
2021/01/19 05:32:43;;;;;;;6.13;2.90;;;4.80;93.00;;;;;;2081363;28;20172;-80
2021/01/19 05:33:52;;;;;;;6.60;3.17;;;4.80;93.00;;;;;;2082734;28;20025;-80
2021/01/19 05:34:53;;;;;;;5.55;3.30;;;4.90;93.00;;;;;;2087705;28;20498;-81
2021/01/19 05:36:12;;;;;;;6.00;3.10;;;4.80;93.00;;;;;;2083702;28;20026;-80
2021/01/19 05:37:23;;;;;;;4.70;2.70;;;4.80;93.00;;;;;;2087876;28;20127;-80